sensor_id;sensor_type;location;lat;lon;timestamp;temperature;humidity
21019;DHT22;10667;51.056;3.732;2023-07-13T00:00:28;19.10;99.90
21019;DHT22;10667;51.056;3.732;2023-07-13T00:02:54;19.10;99.90
21019;DHT22;10667;51.056;3.732;2023-07-13T00:05:21;19.20;99.90
21019;DHT22;10667;51.056;3.732;2023-07-13T00:07:47;19.20;99.90
21019;DHT22;10667;51.056;3.732;2023-07-13T00:10:13;19.20;99.90
21019;DHT22;10667;51.056;3.732;2023-07-13T00:12:39;19.20;99.90
21019;DHT22;10667;51.056;3.732;2023-07-13T00:15:20;19.10;99.90
21019;DHT22;10667;51.056;3.732;2023-07-13T00:17:49;19.20;99.90
21019;DHT22;10667;51.056;3.732;2023-07-13T00:20:15;19.20;99.90
21019;DHT22;10667;51.056;3.732;2023-07-13T00:22:41;19.00;99.90
21019;DHT22;10667;51.056;3.732;2023-07-13T00:25:12;18.90;99.90
21019;DHT22;10667;51.056;3.732;2023-07-13T00:27:37;18.90;99.90
21019;DHT22;10667;51.056;3.732;2023-07-13T00:30:03;18.80;99.90
21019;DHT22;10667;51.056;3.732;2023-07-13T00:32:29;18.80;99.90
21019;DHT22;10667;51.056;3.732;2023-07-13T00:34:55;18.80;99.90
21019;DHT22;10667;51.056;3.732;2023-07-13T00:37:24;18.80;99.90
21019;DHT22;10667;51.056;3.732;2023-07-13T00:39:49;18.70;99.90
21019;DHT22;10667;51.056;3.732;2023-07-13T00:42:15;18.90;99.90
21019;DHT22;10667;51.056;3.732;2023-07-13T00:44:41;18.90;99.90
21019;DHT22;10667;51.056;3.732;2023-07-13T00:47:06;18.80;99.90
21019;DHT22;10667;51.056;3.732;2023-07-13T00:49:33;18.70;99.90
21019;DHT22;10667;51.056;3.732;2023-07-13T00:52:06;18.60;99.90
21019;DHT22;10667;51.056;3.732;2023-07-13T00:54:37;18.40;99.90
21019;DHT22;10667;51.056;3.732;2023-07-13T00:57:08;18.50;99.90
21019;DHT22;10667;51.056;3.732;2023-07-13T00:59:36;18.50;99.90
21019;DHT22;10667;51.056;3.732;2023-07-13T01:02:03;18.60;99.90
21019;DHT22;10667;51.056;3.732;2023-07-13T01:04:29;18.60;99.90
21019;DHT22;10667;51.056;3.732;2023-07-13T01:06:56;18.70;99.90
21019;DHT22;10667;51.056;3.732;2023-07-13T01:09:22;18.60;99.90
21019;DHT22;10667;51.056;3.732;2023-07-13T01:11:48;18.60;99.90
21019;DHT22;10667;51.056;3.732;2023-07-13T01:14:14;18.70;99.90
21019;DHT22;10667;51.056;3.732;2023-07-13T01:16:41;18.80;99.90
21019;DHT22;10667;51.056;3.732;2023-07-13T01:19:39;18.80;99.90
21019;DHT22;10667;51.056;3.732;2023-07-13T01:22:07;18.70;99.90
21019;DHT22;10667;51.056;3.732;2023-07-13T01:24:38;18.70;99.90
21019;DHT22;10667;51.056;3.732;2023-07-13T01:27:04;18.60;99.90
21019;DHT22;10667;51.056;3.732;2023-07-13T01:29:33;18.60;99.90
21019;DHT22;10667;51.056;3.732;2023-07-13T01:31:59;18.50;99.90
21019;DHT22;10667;51.056;3.732;2023-07-13T01:34:26;18.40;99.90
21019;DHT22;10667;51.056;3.732;2023-07-13T01:36:52;18.50;99.90
21019;DHT22;10667;51.056;3.732;2023-07-13T01:39:23;18.40;99.90
21019;DHT22;10667;51.056;3.732;2023-07-13T01:41:49;18.40;99.90
21019;DHT22;10667;51.056;3.732;2023-07-13T01:44:14;18.50;99.90
21019;DHT22;10667;51.056;3.732;2023-07-13T01:46:40;18.50;99.90
21019;DHT22;10667;51.056;3.732;2023-07-13T01:49:06;18.50;99.90
21019;DHT22;10667;51.056;3.732;2023-07-13T01:51:31;18.40;99.90
21019;DHT22;10667;51.056;3.732;2023-07-13T01:53:57;18.50;99.90
21019;DHT22;10667;51.056;3.732;2023-07-13T01:56:23;18.40;99.90
21019;DHT22;10667;51.056;3.732;2023-07-13T01:58:48;18.40;99.90
21019;DHT22;10667;51.056;3.732;2023-07-13T02:01:14;18.30;99.90
21019;DHT22;10667;51.056;3.732;2023-07-13T02:03:40;18.30;99.90
21019;DHT22;10667;51.056;3.732;2023-07-13T02:06:05;18.20;99.90
21019;DHT22;10667;51.056;3.732;2023-07-13T02:08:32;18.30;99.90
21019;DHT22;10667;51.056;3.732;2023-07-13T02:10:59;18.30;99.90
21019;DHT22;10667;51.056;3.732;2023-07-13T02:13:24;18.20;99.90
21019;DHT22;10667;51.056;3.732;2023-07-13T02:15:51;18.20;99.90
21019;DHT22;10667;51.056;3.732;2023-07-13T02:18:17;18.20;99.90
21019;DHT22;10667;51.056;3.732;2023-07-13T02:20:43;18.30;99.90
21019;DHT22;10667;51.056;3.732;2023-07-13T02:23:09;18.30;99.90
21019;DHT22;10667;51.056;3.732;2023-07-13T02:25:35;18.30;99.90
21019;DHT22;10667;51.056;3.732;2023-07-13T02:28:00;18.30;99.90
21019;DHT22;10667;51.056;3.732;2023-07-13T02:30:27;18.30;99.90
21019;DHT22;10667;51.056;3.732;2023-07-13T02:32:55;18.20;99.90
21019;DHT22;10667;51.056;3.732;2023-07-13T02:35:21;18.20;99.90
21019;DHT22;10667;51.056;3.732;2023-07-13T02:37:47;18.20;99.90
21019;DHT22;10667;51.056;3.732;2023-07-13T02:40:12;18.10;99.90
21019;DHT22;10667;51.056;3.732;2023-07-13T02:42:39;18.10;99.90
21019;DHT22;10667;51.056;3.732;2023-07-13T02:45:05;18.10;99.90
21019;DHT22;10667;51.056;3.732;2023-07-13T02:47:32;18.20;99.90
21019;DHT22;10667;51.056;3.732;2023-07-13T02:49:58;18.20;99.90
21019;DHT22;10667;51.056;3.732;2023-07-13T02:52:24;18.20;99.90
21019;DHT22;10667;51.056;3.732;2023-07-13T02:54:50;18.20;99.90
21019;DHT22;10667;51.056;3.732;2023-07-13T02:57:16;18.10;99.90
21019;DHT22;10667;51.056;3.732;2023-07-13T02:59:42;18.10;99.90
21019;DHT22;10667;51.056;3.732;2023-07-13T03:02:07;18.30;99.90
21019;DHT22;10667;51.056;3.732;2023-07-13T03:04:35;18.20;99.90
21019;DHT22;10667;51.056;3.732;2023-07-13T03:07:01;18.20;99.90
21019;DHT22;10667;51.056;3.732;2023-07-13T03:09:27;18.10;99.90
21019;DHT22;10667;51.056;3.732;2023-07-13T03:11:53;18.10;99.90
21019;DHT22;10667;51.056;3.732;2023-07-13T03:14:20;18.10;99.90
21019;DHT22;10667;51.056;3.732;2023-07-13T03:16:46;18.10;99.90
21019;DHT22;10667;51.056;3.732;2023-07-13T03:19:12;18.00;99.90
21019;DHT22;10667;51.056;3.732;2023-07-13T03:21:38;18.10;99.90
21019;DHT22;10667;51.056;3.732;2023-07-13T03:24:03;18.10;99.90
21019;DHT22;10667;51.056;3.732;2023-07-13T03:26:29;18.10;99.90
21019;DHT22;10667;51.056;3.732;2023-07-13T03:28:55;18.00;99.90
21019;DHT22;10667;51.056;3.732;2023-07-13T03:31:24;18.10;99.90
21019;DHT22;10667;51.056;3.732;2023-07-13T03:33:50;18.10;99.90
21019;DHT22;10667;51.056;3.732;2023-07-13T03:36:22;17.90;99.90
21019;DHT22;10667;51.056;3.732;2023-07-13T03:38:49;17.90;99.90
21019;DHT22;10667;51.056;3.732;2023-07-13T03:41:15;18.00;99.90
21019;DHT22;10667;51.056;3.732;2023-07-13T03:43:42;18.10;99.90
21019;DHT22;10667;51.056;3.732;2023-07-13T03:46:08;18.10;99.90
21019;DHT22;10667;51.056;3.732;2023-07-13T03:48:33;18.10;99.90
21019;DHT22;10667;51.056;3.732;2023-07-13T03:50:59;18.10;99.90
21019;DHT22;10667;51.056;3.732;2023-07-13T03:53:25;18.10;99.90
21019;DHT22;10667;51.056;3.732;2023-07-13T03:55:51;18.10;99.90
21019;DHT22;10667;51.056;3.732;2023-07-13T04:00:52;17.80;99.90
21019;DHT22;10667;51.056;3.732;2023-07-13T04:03:17;17.80;99.90
21019;DHT22;10667;51.056;3.732;2023-07-13T04:05:43;17.90;99.90
21019;DHT22;10667;51.056;3.732;2023-07-13T04:08:09;18.00;99.90
21019;DHT22;10667;51.056;3.732;2023-07-13T04:10:34;18.10;99.90
21019;DHT22;10667;51.056;3.732;2023-07-13T04:13:00;18.10;99.90
21019;DHT22;10667;51.056;3.732;2023-07-13T04:15:29;18.10;99.90
21019;DHT22;10667;51.056;3.732;2023-07-13T04:17:55;18.10;99.90
21019;DHT22;10667;51.056;3.732;2023-07-13T04:20:21;18.20;99.90
21019;DHT22;10667;51.056;3.732;2023-07-13T04:22:47;18.10;99.90
21019;DHT22;10667;51.056;3.732;2023-07-13T04:25:13;18.20;99.90
21019;DHT22;10667;51.056;3.732;2023-07-13T04:27:38;18.20;99.90
21019;DHT22;10667;51.056;3.732;2023-07-13T04:30:06;18.20;99.90
21019;DHT22;10667;51.056;3.732;2023-07-13T04:32:31;18.30;99.90
21019;DHT22;10667;51.056;3.732;2023-07-13T04:34:58;18.30;99.90
21019;DHT22;10667;51.056;3.732;2023-07-13T04:37:25;18.20;99.90
21019;DHT22;10667;51.056;3.732;2023-07-13T04:39:51;18.20;99.90
21019;DHT22;10667;51.056;3.732;2023-07-13T04:42:17;18.10;99.90
21019;DHT22;10667;51.056;3.732;2023-07-13T04:44:48;18.20;99.90
21019;DHT22;10667;51.056;3.732;2023-07-13T04:47:14;18.20;99.90
21019;DHT22;10667;51.056;3.732;2023-07-13T04:49:40;18.20;99.90
21019;DHT22;10667;51.056;3.732;2023-07-13T04:52:06;18.40;99.90
21019;DHT22;10667;51.056;3.732;2023-07-13T04:54:33;18.40;99.90
21019;DHT22;10667;51.056;3.732;2023-07-13T04:56:59;18.40;99.90
21019;DHT22;10667;51.056;3.732;2023-07-13T04:59:25;18.40;99.90
21019;DHT22;10667;51.056;3.732;2023-07-13T05:01:50;18.40;99.90
21019;DHT22;10667;51.056;3.732;2023-07-13T05:04:16;18.50;99.90
21019;DHT22;10667;51.056;3.732;2023-07-13T05:06:42;18.50;99.90
21019;DHT22;10667;51.056;3.732;2023-07-13T05:09:08;18.60;99.90
21019;DHT22;10667;51.056;3.732;2023-07-13T05:11:33;18.60;99.90
21019;DHT22;10667;51.056;3.732;2023-07-13T05:13:59;18.70;99.90
21019;DHT22;10667;51.056;3.732;2023-07-13T05:16:27;18.60;99.90
21019;DHT22;10667;51.056;3.732;2023-07-13T05:18:53;18.50;99.90
21019;DHT22;10667;51.056;3.732;2023-07-13T05:21:19;18.40;99.90
21019;DHT22;10667;51.056;3.732;2023-07-13T05:23:44;18.40;99.90
21019;DHT22;10667;51.056;3.732;2023-07-13T05:26:11;18.60;99.90
21019;DHT22;10667;51.056;3.732;2023-07-13T05:28:37;18.70;99.90
21019;DHT22;10667;51.056;3.732;2023-07-13T05:31:04;18.70;99.90
21019;DHT22;10667;51.056;3.732;2023-07-13T05:33:30;18.80;99.90
21019;DHT22;10667;51.056;3.732;2023-07-13T05:35:56;18.80;99.90
21019;DHT22;10667;51.056;3.732;2023-07-13T05:38:22;18.90;99.90
21019;DHT22;10667;51.056;3.732;2023-07-13T05:40:47;18.80;99.90
21019;DHT22;10667;51.056;3.732;2023-07-13T05:43:13;18.80;99.90
21019;DHT22;10667;51.056;3.732;2023-07-13T05:45:40;18.80;99.90
21019;DHT22;10667;51.056;3.732;2023-07-13T05:48:06;18.90;99.90
21019;DHT22;10667;51.056;3.732;2023-07-13T05:50:31;19.00;99.90
21019;DHT22;10667;51.056;3.732;2023-07-13T05:52:57;19.00;99.90
21019;DHT22;10667;51.056;3.732;2023-07-13T05:55:23;19.00;99.90
21019;DHT22;10667;51.056;3.732;2023-07-13T05:57:49;19.20;99.90
21019;DHT22;10667;51.056;3.732;2023-07-13T06:00:15;19.20;99.90
21019;DHT22;10667;51.056;3.732;2023-07-13T06:02:41;19.20;99.90
21019;DHT22;10667;51.056;3.732;2023-07-13T06:05:07;19.20;99.90
21019;DHT22;10667;51.056;3.732;2023-07-13T06:07:33;19.30;99.90
21019;DHT22;10667;51.056;3.732;2023-07-13T06:09:58;19.30;99.90
21019;DHT22;10667;51.056;3.732;2023-07-13T06:12:25;19.30;99.90
21019;DHT22;10667;51.056;3.732;2023-07-13T06:14:50;19.30;99.90
21019;DHT22;10667;51.056;3.732;2023-07-13T06:17:16;19.30;99.90
21019;DHT22;10667;51.056;3.732;2023-07-13T06:19:42;19.50;99.90
21019;DHT22;10667;51.056;3.732;2023-07-13T06:22:07;19.50;99.90
21019;DHT22;10667;51.056;3.732;2023-07-13T06:24:33;19.50;99.90
21019;DHT22;10667;51.056;3.732;2023-07-13T06:26:59;19.50;99.90
21019;DHT22;10667;51.056;3.732;2023-07-13T06:29:24;19.60;99.90
21019;DHT22;10667;51.056;3.732;2023-07-13T06:31:50;19.70;99.90
21019;DHT22;10667;51.056;3.732;2023-07-13T06:34:16;19.70;99.90
21019;DHT22;10667;51.056;3.732;2023-07-13T06:36:41;19.60;99.90
21019;DHT22;10667;51.056;3.732;2023-07-13T06:39:07;19.70;99.90
21019;DHT22;10667;51.056;3.732;2023-07-13T06:41:33;19.70;99.90
21019;DHT22;10667;51.056;3.732;2023-07-13T06:43:59;19.70;99.90
21019;DHT22;10667;51.056;3.732;2023-07-13T06:46:25;19.70;99.90
21019;DHT22;10667;51.056;3.732;2023-07-13T06:48:51;19.60;99.90
21019;DHT22;10667;51.056;3.732;2023-07-13T06:51:17;19.70;99.90
21019;DHT22;10667;51.056;3.732;2023-07-13T06:53:42;19.80;99.90
21019;DHT22;10667;51.056;3.732;2023-07-13T06:56:09;19.90;99.90
21019;DHT22;10667;51.056;3.732;2023-07-13T06:58:36;20.00;99.90
21019;DHT22;10667;51.056;3.732;2023-07-13T07:01:03;20.10;99.90
21019;DHT22;10667;51.056;3.732;2023-07-13T07:03:29;20.00;99.90
21019;DHT22;10667;51.056;3.732;2023-07-13T07:06:00;20.00;99.90
21019;DHT22;10667;51.056;3.732;2023-07-13T07:08:26;20.20;99.90
21019;DHT22;10667;51.056;3.732;2023-07-13T07:10:51;20.10;99.90
21019;DHT22;10667;51.056;3.732;2023-07-13T07:13:19;20.00;99.90
21019;DHT22;10667;51.056;3.732;2023-07-13T07:15:45;19.90;99.90
21019;DHT22;10667;51.056;3.732;2023-07-13T07:18:11;20.00;99.90
21019;DHT22;10667;51.056;3.732;2023-07-13T07:20:36;20.10;99.90
21019;DHT22;10667;51.056;3.732;2023-07-13T07:23:02;20.20;99.90
21019;DHT22;10667;51.056;3.732;2023-07-13T07:25:28;20.20;99.90
21019;DHT22;10667;51.056;3.732;2023-07-13T07:27:57;20.10;99.90
21019;DHT22;10667;51.056;3.732;2023-07-13T07:30:24;20.10;99.90
21019;DHT22;10667;51.056;3.732;2023-07-13T07:32:49;20.20;99.90
21019;DHT22;10667;51.056;3.732;2023-07-13T07:35:15;20.50;99.90
21019;DHT22;10667;51.056;3.732;2023-07-13T07:37:41;20.60;99.90
21019;DHT22;10667;51.056;3.732;2023-07-13T07:40:07;20.60;99.90
21019;DHT22;10667;51.056;3.732;2023-07-13T07:42:33;20.70;99.90
21019;DHT22;10667;51.056;3.732;2023-07-13T07:44:59;20.50;99.90
21019;DHT22;10667;51.056;3.732;2023-07-13T07:47:26;20.70;99.90
21019;DHT22;10667;51.056;3.732;2023-07-13T07:49:52;20.80;99.90
21019;DHT22;10667;51.056;3.732;2023-07-13T07:52:18;20.80;99.90
21019;DHT22;10667;51.056;3.732;2023-07-13T07:54:44;20.80;99.90
21019;DHT22;10667;51.056;3.732;2023-07-13T07:57:09;20.90;99.90
21019;DHT22;10667;51.056;3.732;2023-07-13T07:59:36;20.90;99.90
21019;DHT22;10667;51.056;3.732;2023-07-13T08:02:03;21.00;99.90
21019;DHT22;10667;51.056;3.732;2023-07-13T08:04:28;20.90;99.90
21019;DHT22;10667;51.056;3.732;2023-07-13T08:06:54;21.00;99.90
21019;DHT22;10667;51.056;3.732;2023-07-13T08:09:22;21.20;99.90
21019;DHT22;10667;51.056;3.732;2023-07-13T08:11:47;21.30;99.90
21019;DHT22;10667;51.056;3.732;2023-07-13T08:14:13;21.50;99.90
21019;DHT22;10667;51.056;3.732;2023-07-13T08:16:39;21.60;99.90
21019;DHT22;10667;51.056;3.732;2023-07-13T08:19:05;21.70;99.90
21019;DHT22;10667;51.056;3.732;2023-07-13T08:21:31;21.80;99.90
21019;DHT22;10667;51.056;3.732;2023-07-13T08:23:57;21.90;99.90
21019;DHT22;10667;51.056;3.732;2023-07-13T08:26:23;21.90;99.90
21019;DHT22;10667;51.056;3.732;2023-07-13T08:28:49;22.00;99.90
21019;DHT22;10667;51.056;3.732;2023-07-13T08:31:14;22.00;99.90
21019;DHT22;10667;51.056;3.732;2023-07-13T08:33:40;22.00;99.90
21019;DHT22;10667;51.056;3.732;2023-07-13T08:36:06;22.00;99.90
21019;DHT22;10667;51.056;3.732;2023-07-13T08:38:32;22.00;99.90
21019;DHT22;10667;51.056;3.732;2023-07-13T08:40:58;22.00;99.90
21019;DHT22;10667;51.056;3.732;2023-07-13T08:43:35;22.20;99.90
21019;DHT22;10667;51.056;3.732;2023-07-13T08:46:09;22.30;99.90
21019;DHT22;10667;51.056;3.732;2023-07-13T08:48:44;22.40;99.90
21019;DHT22;10667;51.056;3.732;2023-07-13T08:53:59;22.30;99.90
21019;DHT22;10667;51.056;3.732;2023-07-13T08:56:28;22.30;99.90
21019;DHT22;10667;51.056;3.732;2023-07-13T08:59:05;22.20;99.90
21019;DHT22;10667;51.056;3.732;2023-07-13T09:02:17;22.20;99.90
21019;DHT22;10667;51.056;3.732;2023-07-13T09:04:47;22.30;99.90
21019;DHT22;10667;51.056;3.732;2023-07-13T09:10:15;22.40;99.90
21019;DHT22;10667;51.056;3.732;2023-07-13T09:15:41;22.80;99.90
21019;DHT22;10667;51.056;3.732;2023-07-13T09:18:14;22.90;99.90
21019;DHT22;10667;51.056;3.732;2023-07-13T09:21:03;23.10;99.90
21019;DHT22;10667;51.056;3.732;2023-07-13T09:23:30;23.10;99.90
21019;DHT22;10667;51.056;3.732;2023-07-13T09:26:04;23.20;99.90
21019;DHT22;10667;51.056;3.732;2023-07-13T09:28:38;23.40;99.90
21019;DHT22;10667;51.056;3.732;2023-07-13T09:31:09;23.50;99.90
21019;DHT22;10667;51.056;3.732;2023-07-13T09:33:38;23.50;99.90
21019;DHT22;10667;51.056;3.732;2023-07-13T09:36:25;23.70;99.90
21019;DHT22;10667;51.056;3.732;2023-07-13T09:39:25;24.00;99.90
21019;DHT22;10667;51.056;3.732;2023-07-13T09:44:36;24.00;99.90
21019;DHT22;10667;51.056;3.732;2023-07-13T09:47:03;24.00;99.90
21019;DHT22;10667;51.056;3.732;2023-07-13T09:49:36;24.20;99.90
21019;DHT22;10667;51.056;3.732;2023-07-13T09:52:06;24.50;99.90
21019;DHT22;10667;51.056;3.732;2023-07-13T09:54:36;24.50;99.90
21019;DHT22;10667;51.056;3.732;2023-07-13T09:57:08;24.70;99.90
21019;DHT22;10667;51.056;3.732;2023-07-13T09:59:41;24.70;99.90
21019;DHT22;10667;51.056;3.732;2023-07-13T10:02:35;24.60;99.90
21019;DHT22;10667;51.056;3.732;2023-07-13T10:05:13;24.60;99.90
21019;DHT22;10667;51.056;3.732;2023-07-13T10:07:42;24.80;99.90
21019;DHT22;10667;51.056;3.732;2023-07-13T10:10:18;25.10;99.90
21019;DHT22;10667;51.056;3.732;2023-07-13T10:12:45;25.10;99.90
21019;DHT22;10667;51.056;3.732;2023-07-13T10:15:17;24.80;99.90
21019;DHT22;10667;51.056;3.732;2023-07-13T10:17:44;24.80;99.90
21019;DHT22;10667;51.056;3.732;2023-07-13T10:20:10;24.90;99.90
21019;DHT22;10667;51.056;3.732;2023-07-13T10:22:59;25.10;99.90
21019;DHT22;10667;51.056;3.732;2023-07-13T10:25:30;25.40;99.90
21019;DHT22;10667;51.056;3.732;2023-07-13T10:28:11;25.40;99.90
21019;DHT22;10667;51.056;3.732;2023-07-13T10:30:41;25.50;99.90
21019;DHT22;10667;51.056;3.732;2023-07-13T10:33:13;25.50;99.90
21019;DHT22;10667;51.056;3.732;2023-07-13T10:35:41;25.40;99.90
21019;DHT22;10667;51.056;3.732;2023-07-13T10:38:12;25.30;99.90
21019;DHT22;10667;51.056;3.732;2023-07-13T10:40:40;25.00;99.90
21019;DHT22;10667;51.056;3.732;2023-07-13T10:43:18;24.80;99.90
21019;DHT22;10667;51.056;3.732;2023-07-13T10:45:47;24.70;99.90
21019;DHT22;10667;51.056;3.732;2023-07-13T10:48:15;24.60;99.90
21019;DHT22;10667;51.056;3.732;2023-07-13T10:50:44;24.30;99.90
21019;DHT22;10667;51.056;3.732;2023-07-13T10:53:20;24.00;99.90
21019;DHT22;10667;51.056;3.732;2023-07-13T10:58:31;22.80;99.90
21019;DHT22;10667;51.056;3.732;2023-07-13T11:11:34;19.90;99.90
21019;DHT22;10667;51.056;3.732;2023-07-13T11:14:04;19.80;99.90
21019;DHT22;10667;51.056;3.732;2023-07-13T11:16:37;19.80;99.90
21019;DHT22;10667;51.056;3.732;2023-07-13T11:21:32;19.70;99.90
21019;DHT22;10667;51.056;3.732;2023-07-13T11:24:04;19.60;99.90
21019;DHT22;10667;51.056;3.732;2023-07-13T11:26:50;19.50;99.90
21019;DHT22;10667;51.056;3.732;2023-07-13T11:29:31;19.40;99.90
21019;DHT22;10667;51.056;3.732;2023-07-13T11:32:00;19.40;99.90
21019;DHT22;10667;51.056;3.732;2023-07-13T11:34:38;19.50;99.90
21019;DHT22;10667;51.056;3.732;2023-07-13T11:37:11;19.80;99.90
21019;DHT22;10667;51.056;3.732;2023-07-13T11:39:41;20.00;99.90
21019;DHT22;10667;51.056;3.732;2023-07-13T11:42:13;20.10;99.90
21019;DHT22;10667;51.056;3.732;2023-07-13T11:44:50;20.50;99.90
21019;DHT22;10667;51.056;3.732;2023-07-13T11:47:21;20.60;99.90
21019;DHT22;10667;51.056;3.732;2023-07-13T11:49:53;20.80;99.90
21019;DHT22;10667;51.056;3.732;2023-07-13T11:52:36;20.90;99.90
21019;DHT22;10667;51.056;3.732;2023-07-13T11:55:20;21.20;99.90
21019;DHT22;10667;51.056;3.732;2023-07-13T11:57:58;21.50;99.90
21019;DHT22;10667;51.056;3.732;2023-07-13T12:00:32;21.80;99.90
21019;DHT22;10667;51.056;3.732;2023-07-13T12:03:00;22.20;99.90
21019;DHT22;10667;51.056;3.732;2023-07-13T12:05:27;22.30;99.90
21019;DHT22;10667;51.056;3.732;2023-07-13T12:07:54;22.30;99.90
21019;DHT22;10667;51.056;3.732;2023-07-13T12:10:22;22.30;99.90
21019;DHT22;10667;51.056;3.732;2023-07-13T12:13:00;22.30;99.90
21019;DHT22;10667;51.056;3.732;2023-07-13T12:15:40;22.40;99.90
21019;DHT22;10667;51.056;3.732;2023-07-13T12:18:19;22.40;99.90
21019;DHT22;10667;51.056;3.732;2023-07-13T12:20:46;22.60;99.90
21019;DHT22;10667;51.056;3.732;2023-07-13T12:23:31;22.90;99.90
21019;DHT22;10667;51.056;3.732;2023-07-13T12:26:00;23.00;99.90
21019;DHT22;10667;51.056;3.732;2023-07-13T12:30:59;23.10;99.90
21019;DHT22;10667;51.056;3.732;2023-07-13T12:33:30;23.30;99.90
21019;DHT22;10667;51.056;3.732;2023-07-13T12:36:03;23.50;99.90
21019;DHT22;10667;51.056;3.732;2023-07-13T12:38:30;24.00;99.90
21019;DHT22;10667;51.056;3.732;2023-07-13T12:40:56;24.50;99.90
21019;DHT22;10667;51.056;3.732;2023-07-13T12:43:23;24.90;99.90
21019;DHT22;10667;51.056;3.732;2023-07-13T12:45:59;24.90;99.90
21019;DHT22;10667;51.056;3.732;2023-07-13T12:48:26;24.70;99.90
21019;DHT22;10667;51.056;3.732;2023-07-13T12:50:54;24.50;99.90
21019;DHT22;10667;51.056;3.732;2023-07-13T12:53:22;24.20;99.90
21019;DHT22;10667;51.056;3.732;2023-07-13T12:55:56;24.10;99.90
21019;DHT22;10667;51.056;3.732;2023-07-13T12:58:35;24.30;99.90
21019;DHT22;10667;51.056;3.732;2023-07-13T13:01:02;24.70;99.90
21019;DHT22;10667;51.056;3.732;2023-07-13T13:06:03;24.80;99.90
21019;DHT22;10667;51.056;3.732;2023-07-13T13:08:32;24.70;99.90
21019;DHT22;10667;51.056;3.732;2023-07-13T13:10:57;24.60;99.90
21019;DHT22;10667;51.056;3.732;2023-07-13T13:13:23;24.60;99.90
21019;DHT22;10667;51.056;3.732;2023-07-13T13:15:50;24.90;99.90
21019;DHT22;10667;51.056;3.732;2023-07-13T13:18:21;25.00;99.90
21019;DHT22;10667;51.056;3.732;2023-07-13T13:20:50;25.20;99.90
21019;DHT22;10667;51.056;3.732;2023-07-13T13:23:19;25.60;99.90
21019;DHT22;10667;51.056;3.732;2023-07-13T13:25:49;25.70;99.90
21019;DHT22;10667;51.056;3.732;2023-07-13T13:28:20;25.60;99.90
21019;DHT22;10667;51.056;3.732;2023-07-13T13:30:48;25.40;99.90
21019;DHT22;10667;51.056;3.732;2023-07-13T13:33:16;25.20;99.90
21019;DHT22;10667;51.056;3.732;2023-07-13T13:35:43;25.00;99.90
21019;DHT22;10667;51.056;3.732;2023-07-13T13:38:17;25.00;99.90
21019;DHT22;10667;51.056;3.732;2023-07-13T13:40:45;25.10;99.90
21019;DHT22;10667;51.056;3.732;2023-07-13T13:43:26;25.10;99.90
21019;DHT22;10667;51.056;3.732;2023-07-13T13:45:54;25.30;99.90
21019;DHT22;10667;51.056;3.732;2023-07-13T13:48:29;25.20;99.90
21019;DHT22;10667;51.056;3.732;2023-07-13T13:50:57;25.20;99.90
21019;DHT22;10667;51.056;3.732;2023-07-13T13:53:23;25.00;99.90
21019;DHT22;10667;51.056;3.732;2023-07-13T13:55:50;25.30;99.90
21019;DHT22;10667;51.056;3.732;2023-07-13T13:58:15;25.90;99.90
21019;DHT22;10667;51.056;3.732;2023-07-13T14:00:41;26.60;99.90
21019;DHT22;10667;51.056;3.732;2023-07-13T14:03:20;26.90;99.10
21019;DHT22;10667;51.056;3.732;2023-07-13T14:05:48;27.00;99.90
21019;DHT22;10667;51.056;3.732;2023-07-13T14:08:23;27.40;99.80
21019;DHT22;10667;51.056;3.732;2023-07-13T14:10:54;27.70;97.50
21019;DHT22;10667;51.056;3.732;2023-07-13T14:13:24;27.80;97.80
21019;DHT22;10667;51.056;3.732;2023-07-13T14:15:52;28.40;95.40
21019;DHT22;10667;51.056;3.732;2023-07-13T14:18:18;28.50;92.20
21019;DHT22;10667;51.056;3.732;2023-07-13T14:20:45;28.60;92.10
21019;DHT22;10667;51.056;3.732;2023-07-13T14:23:13;28.80;90.50
21019;DHT22;10667;51.056;3.732;2023-07-13T14:25:38;29.00;90.30
21019;DHT22;10667;51.056;3.732;2023-07-13T14:30:43;30.20;85.60
21019;DHT22;10667;51.056;3.732;2023-07-13T14:33:10;30.60;79.90
21019;DHT22;10667;51.056;3.732;2023-07-13T14:35:36;30.60;80.10
21019;DHT22;10667;51.056;3.732;2023-07-13T14:38:03;30.70;78.60
21019;DHT22;10667;51.056;3.732;2023-07-13T14:40:30;30.80;75.40
21019;DHT22;10667;51.056;3.732;2023-07-13T14:42:57;30.90;81.20
21019;DHT22;10667;51.056;3.732;2023-07-13T14:45:24;31.10;74.40
21019;DHT22;10667;51.056;3.732;2023-07-13T14:47:50;31.10;70.20
21019;DHT22;10667;51.056;3.732;2023-07-13T14:50:18;31.00;69.90
21019;DHT22;10667;51.056;3.732;2023-07-13T14:52:46;30.50;71.90
21019;DHT22;10667;51.056;3.732;2023-07-13T14:55:15;30.70;71.50
21019;DHT22;10667;51.056;3.732;2023-07-13T14:57:41;30.90;72.70
21019;DHT22;10667;51.056;3.732;2023-07-13T15:00:13;31.00;67.10
21019;DHT22;10667;51.056;3.732;2023-07-13T15:02:41;30.60;68.20
21019;DHT22;10667;51.056;3.732;2023-07-13T15:05:19;30.00;68.10
21019;DHT22;10667;51.056;3.732;2023-07-13T15:07:46;29.20;72.20
21019;DHT22;10667;51.056;3.732;2023-07-13T15:10:16;28.60;75.80
21019;DHT22;10667;51.056;3.732;2023-07-13T15:12:43;27.90;78.90
21019;DHT22;10667;51.056;3.732;2023-07-13T15:15:09;27.50;84.60
21019;DHT22;10667;51.056;3.732;2023-07-13T15:17:40;27.10;85.90
21019;DHT22;10667;51.056;3.732;2023-07-13T15:20:25;26.60;87.80
21019;DHT22;10667;51.056;3.732;2023-07-13T15:22:51;26.40;86.50
21019;DHT22;10667;51.056;3.732;2023-07-13T15:25:28;26.20;90.10
21019;DHT22;10667;51.056;3.732;2023-07-13T15:27:56;26.70;90.50
21019;DHT22;10667;51.056;3.732;2023-07-13T15:30:25;27.50;84.50
21019;DHT22;10667;51.056;3.732;2023-07-13T15:32:51;28.40;82.80
21019;DHT22;10667;51.056;3.732;2023-07-13T15:35:22;29.20;77.60
21019;DHT22;10667;51.056;3.732;2023-07-13T15:37:48;29.80;79.50
21019;DHT22;10667;51.056;3.732;2023-07-13T15:40:15;30.30;76.00
21019;DHT22;10667;51.056;3.732;2023-07-13T15:42:42;30.40;68.40
21019;DHT22;10667;51.056;3.732;2023-07-13T15:45:22;30.50;68.90
21019;DHT22;10667;51.056;3.732;2023-07-13T15:47:50;30.90;65.10
21019;DHT22;10667;51.056;3.732;2023-07-13T15:50:22;31.20;66.30
21019;DHT22;10667;51.056;3.732;2023-07-13T15:52:58;31.60;65.20
21019;DHT22;10667;51.056;3.732;2023-07-13T15:55:24;32.00;61.40
21019;DHT22;10667;51.056;3.732;2023-07-13T15:57:51;32.30;59.10
21019;DHT22;10667;51.056;3.732;2023-07-13T16:00:24;32.30;57.20
21019;DHT22;10667;51.056;3.732;2023-07-13T16:02:51;31.70;56.60
21019;DHT22;10667;51.056;3.732;2023-07-13T16:05:18;31.10;58.20
21019;DHT22;10667;51.056;3.732;2023-07-13T16:07:45;30.50;60.30
21019;DHT22;10667;51.056;3.732;2023-07-13T16:10:22;29.70;61.20
21019;DHT22;10667;51.056;3.732;2023-07-13T16:12:48;29.50;63.90
21019;DHT22;10667;51.056;3.732;2023-07-13T16:15:19;30.00;64.50